DPOT23 YWLM-YWLM

Flight info

Callsign DPOT23
Flight time 1h 11m
Altitude 29000
Route IFFEY
Aircraft F35/M-SDILOTUVY/C

Departure

Time 2026-04-26 10:06
Airport Newcastle Airport (YWLM)

Arrival

Time 2026-04-26 11:17
Airport Newcastle Airport (YWLM)
Time Latitude Longitude Altitude Speed Heading
2026-04-26 09:41 -32.78881 151.84070 31 ft 0 kts 55°
2026-04-26 09:51 -32.78880 151.84070 31 ft 1 kts 55°
2026-04-26 09:51 -32.78872 151.84088 31 ft 2 kts 73°
2026-04-26 09:52 -32.78898 151.84122 31 ft 7 kts 144°
2026-04-26 09:52 -32.78972 151.84040 31 ft 14 kts 234°
2026-04-26 09:52 -32.79031 151.83943 31 ft 14 kts 234°
2026-04-26 09:53 -32.79087 151.83850 31 ft 14 kts 234°
2026-04-26 09:53 -32.79150 151.83754 31 ft 18 kts 222°
2026-04-26 09:53 -32.79252 151.83650 31 ft 19 kts 219°
2026-04-26 09:53 -32.79357 151.83549 29 ft 19 kts 219°
2026-04-26 09:54 -32.79379 151.83478 28 ft 11 kts 304°
2026-04-26 09:54 -32.79304 151.83374 29 ft 21 kts 308°
2026-04-26 09:54 -32.79215 151.83250 32 ft 19 kts 311°
2026-04-26 09:54 -32.79151 151.83161 32 ft 11 kts 310°
2026-04-26 09:55 -32.79103 151.83092 32 ft 10 kts 311°
2026-04-26 09:55 -32.79053 151.83026 33 ft 14 kts 310°
2026-04-26 09:55 -32.78955 151.82888 30 ft 27 kts 310°
2026-04-26 09:55 -32.78858 151.82751 29 ft 20 kts 311°
2026-04-26 09:56 -32.78768 151.82630 28 ft 19 kts 311°
2026-04-26 09:56 -32.78713 151.82583 28 ft 6 kts 18°
2026-04-26 09:56 -32.78680 151.82611 28 ft 5 kts 41°
2026-04-26 09:56 -32.78653 151.82641 28 ft 6 kts 38°
2026-04-26 09:57 -32.78623 151.82626 28 ft 5 kts 311°
2026-04-26 09:57 -32.78584 151.82570 28 ft 11 kts 311°
2026-04-26 09:57 -32.78575 151.82523 28 ft 5 kts 221°
2026-04-26 09:57 -32.78579 151.82520 28 ft 0 kts 219°
2026-04-26 10:04 -32.78583 151.82485 28 ft 7 kts 297°
2026-04-26 10:05 -32.78562 151.82433 28 ft 8 kts 245°
2026-04-26 10:05 -32.78614 151.82376 28 ft 11 kts 221°
2026-04-26 10:05 -32.78686 151.82302 27 ft 16 kts 219°
2026-04-26 10:05 -32.78749 151.82298 27 ft 8 kts 130°
2026-04-26 10:06 -32.79171 151.82883 32 ft 203 kts 130°
2026-04-26 10:06 -32.80456 151.84692 408 ft 365 kts 130°
2026-04-26 10:06 -32.82388 151.87383 1861 ft 482 kts 129°
2026-04-26 10:06 -32.83736 151.90423 3823 ft 379 kts 90°
2026-04-26 10:07 -32.83272 151.93899 3285 ft 380 kts 78°
2026-04-26 10:07 -32.82854 151.96628 6045 ft 381 kts 79°
2026-04-26 10:07 -32.82420 151.99710 8958 ft 351 kts 79°
2026-04-26 10:07 -32.81950 152.02735 12077 ft 392 kts 79°
2026-04-26 10:08 -32.81540 152.06067 15127 ft 424 kts 88°
2026-04-26 10:08 -32.81813 152.09510 17753 ft 414 kts 99°
2026-04-26 10:08 -32.82310 152.12917 20442 ft 434 kts 100°
2026-04-26 10:08 -32.82850 152.16653 23612 ft 472 kts 100°
2026-04-26 10:09 -32.83451 152.20610 25592 ft 499 kts 100°
2026-04-26 10:09 -32.84043 152.24720 27409 ft 507 kts 101°
2026-04-26 10:09 -32.84661 152.28926 28929 ft 526 kts 101°
2026-04-26 10:09 -32.85303 152.33143 30357 ft 509 kts 102°
2026-04-26 10:10 -32.85973 152.37116 31439 ft 487 kts 102°
2026-04-26 10:10 -32.86651 152.41123 32254 ft 512 kts 103°
2026-04-26 10:10 -32.87359 152.45486 32021 ft 552 kts 99°
2026-04-26 10:10 -32.87864 152.49974 32109 ft 545 kts 98°
2026-04-26 10:11 -32.88372 152.54471 32215 ft 552 kts 99°
2026-04-26 10:11 -32.88894 152.59025 32240 ft 560 kts 99°
2026-04-26 10:11 -32.89958 152.68233 32196 ft 562 kts 99°
2026-04-26 10:12 -32.90966 152.77442 32249 ft 559 kts 98°
2026-04-26 10:12 -32.91846 152.86601 32260 ft 557 kts 98°
2026-04-26 10:13 -32.92262 152.91099 32240 ft 540 kts 97°
2026-04-26 10:13 -32.92372 152.95546 31709 ft 542 kts 68°
2026-04-26 10:13 -32.89583 152.98498 28883 ft 559 kts 13°
2026-04-26 10:13 -32.86100 152.97670 24380 ft 503 kts 316°
2026-04-26 10:14 -32.84949 152.93813 21833 ft 533 kts 255°
2026-04-26 10:14 -32.87086 152.90745 22249 ft 480 kts 215°
2026-04-26 10:14 -32.89912 152.88281 21998 ft 485 kts 213°
2026-04-26 10:14 -32.92773 152.86110 21888 ft 484 kts 208°
2026-04-26 10:15 -32.95592 152.84268 21701 ft 446 kts 207°
2026-04-26 10:15 -32.98292 152.82422 21344 ft 464 kts 209°
2026-04-26 10:15 -33.01174 152.80380 21219 ft 512 kts 206°
2026-04-26 10:15 -33.03967 152.79017 21276 ft 552 kts 194°
2026-04-26 10:16 -33.07768 152.78100 21397 ft 507 kts 189°
2026-04-26 10:16 -33.11043 152.77416 21448 ft 483 kts 187°
2026-04-26 10:16 -33.14258 152.76780 21651 ft 476 kts 188°
2026-04-26 10:16 -33.17521 152.76104 21802 ft 466 kts 188°
2026-04-26 10:17 -33.20747 152.75572 21952 ft 481 kts 184°
2026-04-26 10:17 -33.24146 152.75442 22154 ft 496 kts 174°
2026-04-26 10:17 -33.27438 152.76351 22295 ft 462 kts 153°
2026-04-26 10:17 -33.30147 152.77990 22781 ft 426 kts 149°
2026-04-26 10:18 -33.32443 152.79870 22859 ft 383 kts 139°
2026-04-26 10:18 -33.34124 152.82284 22907 ft 380 kts 118°
2026-04-26 10:18 -33.35161 152.85229 22811 ft 387 kts 105°
2026-04-26 10:18 -33.35483 152.88502 22954 ft 409 kts 86°
2026-04-26 10:19 -33.34712 152.91965 23138 ft 459 kts 64°
2026-04-26 10:19 -33.32707 152.94983 23528 ft 475 kts 38°
2026-04-26 10:19 -33.29883 152.96834 23973 ft 425 kts 25°
2026-04-26 10:19 -33.27290 152.98132 23961 ft 393 kts 17°
2026-04-26 10:20 -33.24561 152.98906 24081 ft 422 kts 14°
2026-04-26 10:20 -33.22584 152.99394 24104 ft 456 kts 13°
2026-04-26 10:20 -33.18199 153.00436 24212 ft 485 kts 13°
2026-04-26 10:20 -33.15081 153.01190 24247 ft 428 kts 14°
2026-04-26 10:21 -33.12126 153.01893 24280 ft 459 kts 12°
2026-04-26 10:21 -33.08871 153.02512 24302 ft 458 kts 11°
2026-04-26 10:21 -33.05867 153.03104 24174 ft 434 kts 12°
2026-04-26 10:21 -33.02872 153.03782 24128 ft 421 kts 13°
2026-04-26 10:22 -32.99970 153.04442 24215 ft 418 kts 12°
2026-04-26 10:22 -32.97158 153.05009 24235 ft 405 kts 13°
2026-04-26 10:22 -32.94400 153.05653 24240 ft 415 kts 13°
2026-04-26 10:22 -32.91398 153.06256 24318 ft 461 kts 11°
2026-04-26 10:23 -32.88409 153.06829 24261 ft 384 kts 13°
2026-04-26 10:23 -32.85695 153.07417 24188 ft 411 kts 11°
2026-04-26 10:23 -32.82839 153.07937 24241 ft 417 kts 12°
2026-04-26 10:23 -32.79999 153.08478 24197 ft 388 kts 11°
2026-04-26 10:24 -32.77463 153.08953 24215 ft 358 kts 12°
2026-04-26 10:24 -32.75013 153.09441 24235 ft 363 kts 12°
2026-04-26 10:24 -32.73286 153.09795 24278 ft 403 kts 12°
2026-04-26 10:24 -32.69113 153.10694 24362 ft 500 kts 13°
2026-04-26 10:25 -32.66980 153.11170 24305 ft 416 kts 12°
2026-04-26 10:25 -32.64341 153.11592 24299 ft 374 kts
2026-04-26 10:25 -32.61648 153.11538 24147 ft 405 kts 354°
2026-04-26 10:25 -32.58972 153.10475 24038 ft 421 kts 330°
2026-04-26 10:26 -32.56652 153.08421 24043 ft 419 kts 322°
2026-04-26 10:26 -32.54535 153.05679 24146 ft 471 kts 299°
2026-04-26 10:26 -32.53398 153.02417 24256 ft 404 kts 284°
2026-04-26 10:26 -32.53001 152.99089 24196 ft 416 kts 270°
2026-04-26 10:27 -32.53410 152.95708 24191 ft 410 kts 251°
2026-04-26 10:27 -32.54574 152.92608 24198 ft 413 kts 235°
2026-04-26 10:27 -32.56345 152.90147 24164 ft 389 kts 218°
2026-04-26 10:27 -32.58587 152.88224 24234 ft 403 kts 204°
2026-04-26 10:28 -32.61196 152.87086 24227 ft 377 kts 188°
2026-04-26 10:28 -32.63626 152.86653 24268 ft 340 kts 185°
2026-04-26 10:28 -32.66060 152.86221 24350 ft 372 kts 187°
2026-04-26 10:28 -32.68891 152.85617 24424 ft 485 kts 188°
2026-04-26 10:29 -32.72141 152.84884 24316 ft 399 kts 188°
2026-04-26 10:29 -32.74830 152.84359 24286 ft 392 kts 187°
2026-04-26 10:29 -32.77493 152.83814 24338 ft 398 kts 187°
2026-04-26 10:29 -32.80219 152.83208 24317 ft 402 kts 188°
2026-04-26 10:30 -32.82953 152.82629 24309 ft 392 kts 187°
2026-04-26 10:30 -32.85558 152.82075 24353 ft 398 kts 188°
2026-04-26 10:30 -32.88198 152.81579 24333 ft 378 kts 186°
2026-04-26 10:30 -32.90932 152.80983 24375 ft 411 kts 188°
2026-04-26 10:31 -32.93662 152.80364 24320 ft 401 kts 187°
2026-04-26 10:31 -32.96371 152.79787 24314 ft 394 kts 187°
2026-04-26 10:31 -32.99112 152.79200 24327 ft 396 kts 188°
2026-04-26 10:31 -33.01821 152.78630 24290 ft 395 kts 187°
2026-04-26 10:32 -33.04541 152.78060 24307 ft 400 kts 188°
2026-04-26 10:32 -33.07263 152.77474 24321 ft 394 kts 187°
2026-04-26 10:32 -33.09958 152.76904 24289 ft 396 kts 188°
2026-04-26 10:32 -33.12686 152.76324 24284 ft 398 kts 187°
2026-04-26 10:33 -33.15406 152.75743 24285 ft 397 kts 188°
2026-04-26 10:33 -33.18113 152.75162 24295 ft 395 kts 187°
2026-04-26 10:33 -33.20834 152.74598 24294 ft 394 kts 187°
2026-04-26 10:33 -33.23526 152.74027 24306 ft 395 kts 187°
2026-04-26 10:34 -33.26235 152.73451 24318 ft 389 kts 187°
2026-04-26 10:34 -33.28919 152.73051 24268 ft 389 kts 178°
2026-04-26 10:34 -33.31636 152.73386 24254 ft 393 kts 166°
2026-04-26 10:34 -33.34150 152.74445 24259 ft 382 kts 151°
2026-04-26 10:35 -33.36364 152.76253 24259 ft 387 kts 137°
2026-04-26 10:35 -33.38086 152.78652 24248 ft 380 kts 123°
2026-04-26 10:35 -33.39263 152.81494 24232 ft 386 kts 109°
2026-04-26 10:35 -33.39777 152.84624 24231 ft 385 kts 94°
2026-04-26 10:36 -33.39603 152.87828 24211 ft 374 kts 80°
2026-04-26 10:36 -33.38801 152.90784 24189 ft 397 kts 66°
2026-04-26 10:36 -33.37281 152.93586 24231 ft 402 kts 51°
2026-04-26 10:36 -33.35201 152.95815 24229 ft 404 kts 36°
2026-04-26 10:37 -33.32708 152.97304 24230 ft 402 kts 21°
2026-04-26 10:37 -33.29932 152.98039 24245 ft 399 kts 13°
2026-04-26 10:37 -33.27164 152.98666 24240 ft 405 kts 13°
2026-04-26 10:37 -33.24376 152.99305 24238 ft 404 kts 13°
2026-04-26 10:38 -33.21578 152.99926 24240 ft 406 kts 13°
2026-04-26 10:38 -33.18789 153.00525 24234 ft 412 kts 13°
2026-04-26 10:38 -33.16004 153.01115 24251 ft 400 kts 12°
2026-04-26 10:38 -33.13214 153.01695 24239 ft 410 kts 12°
2026-04-26 10:39 -33.10442 153.02270 24220 ft 386 kts 12°
2026-04-26 10:39 -33.07707 153.02843 24223 ft 414 kts 12°
2026-04-26 10:39 -33.04874 153.03516 24122 ft 436 kts 33°
2026-04-26 10:39 -33.01672 153.05374 22756 ft 568 kts 25°
2026-04-26 10:40 -32.98114 153.07251 25633 ft 553 kts 27°
2026-04-26 10:40 -32.94673 153.09181 28578 ft 542 kts 28°
2026-04-26 10:40 -32.91225 153.11207 30229 ft 562 kts 30°
2026-04-26 10:40 -32.87855 153.13303 30303 ft 545 kts 31°
2026-04-26 10:41 -32.81260 153.17819 30295 ft 546 kts 33°
2026-04-26 10:41 -32.74837 153.22279 30272 ft 495 kts 33°
2026-04-26 10:42 -32.72037 153.24173 30270 ft 446 kts 32°
2026-04-26 10:42 -32.69309 153.25995 30287 ft 447 kts 32°
2026-04-26 10:42 -32.63847 153.29634 30280 ft 448 kts 32°
2026-04-26 10:43 -32.58424 153.33231 30285 ft 451 kts 32°
2026-04-26 10:43 -32.52927 153.36865 30281 ft 449 kts 32°
2026-04-26 10:44 -32.47483 153.40450 30288 ft 450 kts 32°
2026-04-26 10:44 -32.42013 153.44036 30296 ft 450 kts 32°
2026-04-26 10:45 -32.36523 153.47622 30290 ft 449 kts 32°
2026-04-26 10:45 -32.31041 153.51191 30292 ft 451 kts 32°
2026-04-26 10:46 -32.25551 153.54753 30293 ft 449 kts 32°
2026-04-26 10:46 -32.20054 153.58308 30289 ft 451 kts 32°
2026-04-26 10:47 -32.14562 153.61844 30284 ft 450 kts 32°
2026-04-26 10:47 -32.09052 153.65387 30284 ft 450 kts 32°
2026-04-26 10:48 -32.03555 153.68912 30291 ft 451 kts 32°
2026-04-26 10:48 -31.98048 153.72443 30282 ft 449 kts 32°
2026-04-26 10:49 -31.92025 153.74780 29305 ft 550 kts 351°
2026-04-26 10:49 -31.88165 153.72851 25497 ft 663 kts 323°
2026-04-26 10:49 -31.84056 153.69208 20784 ft 823 kts 323°
2026-04-26 10:50 -31.79208 153.64887 17522 ft 897 kts 323°
2026-04-26 10:50 -31.75906 153.61955 15556 ft 898 kts 323°
2026-04-26 10:50 -31.69429 153.55778 13158 ft 883 kts 320°
2026-04-26 10:50 -31.64819 153.51205 12254 ft 836 kts 320°
2026-04-26 10:51 -31.60881 153.47273 11429 ft 674 kts 320°
2026-04-26 10:51 -31.54658 153.41024 11241 ft 543 kts 320°
2026-04-26 10:51 -31.51694 153.37957 13936 ft 587 kts 319°
2026-04-26 10:52 -31.48682 153.34780 17666 ft 574 kts 319°
2026-04-26 10:52 -31.45658 153.31822 21593 ft 558 kts 323°
2026-04-26 10:52 -31.42477 153.29333 25672 ft 542 kts 330°
2026-04-26 10:52 -31.39124 153.27457 29982 ft 537 kts 339°
2026-04-26 10:53 -31.35429 153.26234 32048 ft 575 kts 354°
2026-04-26 10:53 -31.31374 153.25820 32609 ft 589 kts 358°
2026-04-26 10:53 -31.27280 153.25572 33464 ft 590 kts 359°
2026-04-26 10:54 -31.19098 153.25667 35105 ft 587 kts
2026-04-26 10:54 -31.15025 153.26340 35066 ft 596 kts 10°
2026-04-26 10:54 -31.10910 153.27099 34688 ft 599 kts
2026-04-26 10:54 -31.06761 153.27721 33882 ft 604 kts
2026-04-26 10:55 -31.02581 153.28337 32733 ft 606 kts
2026-04-26 10:55 -30.98402 153.28952 31665 ft 607 kts
2026-04-26 10:55 -30.94202 153.29571 30610 ft 608 kts
2026-04-26 10:55 -30.91427 153.29979 29842 ft 608 kts
2026-04-26 10:56 -30.85906 153.30334 25916 ft 552 kts
2026-04-26 10:56 -30.82296 153.30341 17486 ft 539 kts 352°
2026-04-26 10:56 -30.78698 153.28573 12307 ft 561 kts 328°
2026-04-26 10:56 -30.75871 153.25229 8619 ft 618 kts 294°
2026-04-26 10:57 -30.75453 153.20439 3097 ft 634 kts 249°
2026-04-26 10:57 -30.77534 153.16032 2416 ft 570 kts 236°
2026-04-26 10:57 -30.79860 153.12600 2865 ft 567 kts 227°
2026-04-26 10:57 -30.82422 153.09744 3226 ft 458 kts 214°
2026-04-26 10:58 -30.84942 153.07978 3446 ft 391 kts 210°
2026-04-26 10:58 -30.87213 153.06409 2851 ft 377 kts 206°
2026-04-26 10:58 -30.89556 153.05198 2185 ft 353 kts 198°
2026-04-26 10:58 -30.91774 153.04787 1761 ft 303 kts 150°
2026-04-26 10:59 -30.92576 153.06763 1371 ft 288 kts 113°
2026-04-26 10:59 -30.94598 153.07895 925 ft 436 kts 194°
2026-04-26 10:59 -30.98052 153.07092 1100 ft 555 kts 179°
2026-04-26 10:59 -31.01609 153.07328 803 ft 474 kts 175°
2026-04-26 11:00 -31.04932 153.06759 1074 ft 550 kts 198°
2026-04-26 11:00 -31.08662 153.04541 1238 ft 637 kts 211°
2026-04-26 11:00 -31.12520 153.01779 766 ft 657 kts 209°
2026-04-26 11:00 -31.16630 152.99466 738 ft 656 kts 201°
2026-04-26 11:01 -31.20928 152.97640 518 ft 653 kts 192°
2026-04-26 11:01 -31.25430 152.97116 557 ft 655 kts 177°
2026-04-26 11:01 -31.29976 152.97380 414 ft 652 kts 182°
2026-04-26 11:01 -31.34202 152.95671 735 ft 656 kts 204°
2026-04-26 11:02 -31.38611 152.94462 272 ft 657 kts 184°
2026-04-26 11:02 -31.43171 152.94074 279 ft 658 kts 184°
2026-04-26 11:02 -31.47641 152.93107 567 ft 653 kts 205°
2026-04-26 11:02 -31.51279 152.89913 590 ft 662 kts 220°
2026-04-26 11:03 -31.54977 152.86729 465 ft 658 kts 208°
2026-04-26 11:03 -31.59320 152.85169 210 ft 656 kts 192°
2026-04-26 11:03 -31.63772 152.83978 424 ft 654 kts 196°
2026-04-26 11:03 -31.67850 152.81654 748 ft 660 kts 206°
2026-04-26 11:04 -31.72230 152.80197 764 ft 658 kts 198°
2026-04-26 11:04 -31.76058 152.77301 406 ft 665 kts 217°
2026-04-26 11:04 -31.79873 152.74275 103 ft 659 kts 201°
2026-04-26 11:04 -31.83823 152.75229 538 ft 633 kts 137°
2026-04-26 11:05 -31.86888 152.73458 3792 ft 624 kts 243°
2026-04-26 11:05 -31.88866 152.68663 1031 ft 684 kts 241°
2026-04-26 11:05 -31.91644 152.64108 423 ft 685 kts 221°
2026-04-26 11:05 -31.95379 152.60731 96 ft 667 kts 214°
2026-04-26 11:06 -31.99289 152.57838 156 ft 659 kts 209°
2026-04-26 11:06 -32.02025 152.56127 131 ft 659 kts 201°
2026-04-26 11:06 -32.07816 152.54351 502 ft 654 kts 217°
2026-04-26 11:06 -32.11576 152.51449 231 ft 646 kts 195°
2026-04-26 11:07 -32.16014 152.50887 213 ft 644 kts 160°
2026-04-26 11:07 -32.18927 152.54430 235 ft 623 kts 136°
2026-04-26 11:07 -32.22502 152.57251 382 ft 640 kts 191°
2026-04-26 11:07 -32.25520 152.53839 1138 ft 601 kts 208°
2026-04-26 11:08 -32.29806 152.52869 272 ft 656 kts 167°
2026-04-26 11:08 -32.33860 152.55074 558 ft 637 kts 192°
2026-04-26 11:08 -32.37973 152.53121 297 ft 626 kts 195°
2026-04-26 11:08 -32.42041 152.52382 520 ft 622 kts 147°
2026-04-26 11:09 -32.45212 152.53601 1762 ft 598 kts 241°
2026-04-26 11:09 -32.46483 152.48599 362 ft 662 kts 256°
2026-04-26 11:09 -32.47631 152.43765 1953 ft 500 kts 245°
2026-04-26 11:09 -32.49458 152.39527 1411 ft 645 kts 242°
2026-04-26 11:10 -32.51934 152.35021 530 ft 649 kts 229°
2026-04-26 11:10 -32.55235 152.31403 585 ft 649 kts 216°
2026-04-26 11:10 -32.59147 152.28758 461 ft 643 kts 215°
2026-04-26 11:10 -32.61894 152.24941 276 ft 566 kts 230°
2026-04-26 11:11 -32.63717 152.22456 326 ft 623 kts 223°
2026-04-26 11:11 -32.69369 152.21096 867 ft 633 kts 186°
2026-04-26 11:11 -32.73461 152.19133 1644 ft 642 kts 210°
2026-04-26 11:11 -32.75978 152.17318 2313 ft 641 kts 217°
2026-04-26 11:12 -32.78555 152.13114 3186 ft 639 kts 244°
2026-04-26 11:12 -32.80476 152.08474 3311 ft 621 kts 243°
2026-04-26 11:12 -32.82410 152.03921 3242 ft 613 kts 243°
2026-04-26 11:12 -32.84124 151.99594 3148 ft 571 kts 246°
2026-04-26 11:13 -32.84919 151.95795 2781 ft 490 kts 277°
2026-04-26 11:13 -32.84048 151.92075 2018 ft 452 kts 294°
2026-04-26 11:13 -32.82604 151.88639 966 ft 438 kts 303°
2026-04-26 11:13 -32.80960 151.85848 436 ft 387 kts 308°
2026-04-26 11:14 -32.79178 151.83286 417 ft 495 kts 311°
2026-04-26 11:14 -32.77228 151.79434 1126 ft 516 kts 277°
2026-04-26 11:14 -32.78972 151.78268 1407 ft 318 kts 134°
2026-04-26 11:14 -32.80709 151.80178 1600 ft 352 kts 137°
2026-04-26 11:15 -32.82309 151.81757 1440 ft 279 kts 137°
2026-04-26 11:15 -32.83779 151.83232 1518 ft 245 kts 135°
2026-04-26 11:15 -32.84398 151.84706 1549 ft 180 kts 84°
2026-04-26 11:15 -32.83830 151.86230 1509 ft 240 kts 46°
2026-04-26 11:16 -32.82347 151.86788 1039 ft 228 kts 347°
2026-04-26 11:16 -32.81219 151.85769 404 ft 187 kts 311°
2026-04-26 11:16 -32.80441 151.84668 50 ft 156 kts 310°
2026-04-26 11:16 -32.79877 151.83872 33 ft 93 kts 312°
2026-04-26 11:17 -32.79550 151.83413 28 ft 60 kts 309°
2026-04-26 11:17 -32.79298 151.83056 30 ft 57 kts 310°
2026-04-26 11:17 -32.79037 151.82694 27 ft 55 kts 310°
2026-04-26 11:17 -32.78869 151.82524 25 ft 26 kts 12°
2026-04-26 11:18 -32.78793 151.82655 28 ft 19 kts 114°
2026-04-26 11:18 -32.78882 151.82782 30 ft 22 kts 130°
2026-04-26 11:18 -32.79029 151.82993 33 ft 39 kts 130°
2026-04-26 11:18 -32.79204 151.83232 32 ft 37 kts 131°
2026-04-26 11:19 -32.79352 151.83441 28 ft 12 kts 124°
2026-04-26 11:19 -32.79313 151.83508 29 ft 11 kts 39°
2026-04-26 11:19 -32.79221 151.83600 31 ft 25 kts 40°
2026-04-26 11:19 -32.79097 151.83728 31 ft 13 kts 37°
2026-04-26 11:20 -32.79009 151.83706 31 ft 16 kts 31°
2026-04-26 11:20 -32.79000 151.83752 31 ft 7 kts 140°
2026-04-26 11:20 -32.79073 151.83795 31 ft 6 kts 212°
2026-04-26 11:20 -32.79083 151.83776 31 ft 1 kts 234°
2026-04-26 11:21 -32.79085 151.83774 31 ft 0 kts 234°